createdAt,value
2022-11-20T00:02:05.216Z,979.74
2022-11-20T00:17:07.676Z,979.79
2022-11-20T00:32:10.029Z,979.72
2022-11-20T00:47:12.300Z,979.67
2022-11-20T01:02:14.714Z,979.67
2022-11-20T01:17:17.913Z,979.73
2022-11-20T01:32:20.313Z,979.74
2022-11-20T01:47:22.714Z,979.81
2022-11-20T02:02:25.231Z,979.93
2022-11-20T02:17:27.660Z,979.93
2022-11-20T02:32:30.737Z,979.92
2022-11-20T02:47:34.580Z,979.85
2022-11-20T03:02:37.233Z,979.84
2022-11-20T03:17:39.936Z,979.85
2022-11-20T03:32:43.092Z,979.97
2022-11-20T03:47:45.293Z,980.02
2022-11-20T04:02:47.681Z,980.01
2022-11-20T04:17:50.104Z,980.05
2022-11-20T04:32:52.595Z,980.11
2022-11-20T04:47:55.119Z,980.19
2022-11-20T05:02:57.616Z,980.23
2022-11-20T05:17:59.983Z,980.37
2022-11-20T05:33:02.854Z,980.48
2022-11-20T05:48:05.327Z,980.52
2022-11-20T06:03:07.880Z,980.53
2022-11-20T06:18:10.380Z,980.49
2022-11-20T06:33:12.750Z,980.45
2022-11-20T06:48:15.149Z,980.48
2022-11-20T07:03:17.428Z,980.45
2022-11-20T07:18:19.739Z,980.45
2022-11-20T07:33:22.105Z,980.56
2022-11-20T07:48:24.416Z,980.6
2022-11-20T08:03:26.810Z,980.53
2022-11-20T08:18:31.669Z,980.4
2022-11-20T08:33:34.804Z,980.2
2022-11-20T08:48:37.212Z,980.11
2022-11-20T09:03:39.790Z,979.99
2022-11-20T09:18:42.202Z,979.92
2022-11-20T09:33:44.639Z,979.84
2022-11-20T09:48:47.118Z,979.93
2022-11-20T10:03:49.574Z,979.94
2022-11-20T10:18:52.023Z,979.92
2022-11-20T10:34:11.751Z,979.84
2022-11-20T10:49:14.824Z,979.85
2022-11-20T11:04:17.238Z,979.78
2022-11-20T11:19:19.645Z,979.75
2022-11-20T11:34:22.088Z,979.74
2022-11-20T11:49:24.771Z,979.66
2022-11-20T12:04:27.373Z,979.71
2022-11-20T12:19:29.680Z,979.65
2022-11-20T12:34:34.298Z,979.64
2022-11-20T12:49:37.169Z,979.7
2022-11-20T13:04:40.858Z,979.62
2022-11-20T13:34:54.868Z,979.67
2022-11-20T13:49:57.611Z,979.54
2022-11-20T14:04:59.940Z,979.54
2022-11-20T14:20:02.504Z,979.53
2022-11-20T14:35:05.523Z,979.66
2022-11-20T14:50:10.102Z,979.53
2022-11-20T15:05:12.792Z,979.54
2022-11-20T15:20:15.235Z,979.51
2022-11-20T15:35:17.645Z,979.73
2022-11-20T15:50:21.412Z,979.87
2022-11-20T16:05:24.777Z,979.97
2022-11-20T16:20:28.297Z,979.86
2022-11-20T16:35:30.491Z,979.9
2022-11-20T16:50:32.664Z,979.94
2022-11-20T17:05:35.110Z,979.91
2022-11-20T17:20:37.849Z,979.79
2022-11-20T17:35:40.474Z,979.85
2022-11-20T17:50:49.613Z,979.9
2022-11-20T18:05:51.883Z,979.88
2022-11-20T18:20:54.342Z,979.68
2022-11-20T18:35:56.827Z,979.39
2022-11-20T18:50:59.092Z,979.21
2022-11-20T19:06:01.953Z,979.12
2022-11-20T19:21:04.241Z,978.96
2022-11-20T19:36:06.887Z,978.89
2022-11-20T19:51:09.359Z,978.7
2022-11-20T20:06:12.336Z,978.44
2022-11-20T20:21:14.585Z,978.13
2022-11-20T20:36:17.132Z,977.97
2022-11-20T20:51:19.410Z,977.85
2022-11-20T21:06:21.590Z,977.65
2022-11-20T21:21:24.011Z,977.47
2022-11-20T21:36:26.369Z,977.54
2022-11-20T21:51:28.578Z,977.34
2022-11-20T22:06:30.920Z,977.15
2022-11-20T22:21:33.309Z,976.91
2022-11-20T22:36:35.691Z,976.93
2022-11-20T22:51:38.025Z,976.96
2022-11-20T23:06:40.496Z,976.92
2022-11-20T23:21:42.759Z,976.85
2022-11-20T23:36:45.005Z,976.84
2022-11-20T23:51:47.209Z,976.86
